EGPI

Islay Airport

Port Ellen, United Kingdom
METAR EGPI 161420Z AUTO 34003KT 9999 NCD 06/04 Q1018
Observed Flight Rules
Dec-16 @ 14:20 UTC (40 minutes ago) Visual Flight Rules
Wind Visibility Clouds
340° at 3 knots 10,000+ meters
  • Clear skies
Temperatures Readings
Current 6°C / 43°F
Dewpoint 4°C / 39°F
Humidity 87%
Altimeter 30.06" Hg
Pressure 1018 hPa
Elevation 18
METAR EGPI 161420Z AUTO 34003KT 9999 NCD 06/04 Q1018
Observed Flight Rules
Dec-16 @ 14:20 UTC
(40 minutes ago)
VFR
Wind Visibility
340° at 3 knots 10,000+ meters
Clouds
  • Clear skies
Temperature Dewpoint
6°C / 43°F 4°C / 39°F
Humidity Altimeter Pressure
87% 30.06" Hg 1018 hPa